createdAt,value
2023-02-02T00:01:53.403Z,5.89
2023-02-02T00:04:29.055Z,6.14
2023-02-02T00:06:57.565Z,6.17
2023-02-02T00:09:30.389Z,6.33
2023-02-02T00:11:59.853Z,6.22
2023-02-02T00:14:28.444Z,6.04
2023-02-02T00:16:57.375Z,6.30
2023-02-02T00:19:27.764Z,6.37
2023-02-02T00:21:56.775Z,6.51
2023-02-02T00:24:26.341Z,6.60
2023-02-02T00:26:57.641Z,6.21
2023-02-02T00:29:30.572Z,6.31
2023-02-02T00:31:58.933Z,6.45
2023-02-02T00:34:27.200Z,6.50
2023-02-02T00:36:56.270Z,6.60
2023-02-02T00:39:28.403Z,6.70
2023-02-02T00:41:57.954Z,6.59
2023-02-02T00:44:45.381Z,6.38
2023-02-02T00:47:13.951Z,6.44
2023-02-02T00:49:42.314Z,6.56
2023-02-02T00:52:15.531Z,6.68
2023-02-02T00:54:44.078Z,6.80
2023-02-02T00:57:16.658Z,6.90
2023-02-02T00:59:45.380Z,7.00
2023-02-02T01:02:13.883Z,7.00
2023-02-02T01:04:42.815Z,6.91
2023-02-02T01:07:11.264Z,6.85
2023-02-02T01:09:39.895Z,7.03
2023-02-02T01:12:10.867Z,7.17
2023-02-02T01:14:39.820Z,7.23
2023-02-02T01:17:08.499Z,7.21
2023-02-02T01:19:37.193Z,6.98
2023-02-02T01:22:05.459Z,6.94
2023-02-02T01:24:35.005Z,6.97
2023-02-02T01:27:04.029Z,6.89
2023-02-02T01:29:33.675Z,6.91
2023-02-02T01:32:02.822Z,6.45
2023-02-02T01:34:31.381Z,6.62
2023-02-02T01:38:16.754Z,6.69
2023-02-02T01:41:11.508Z,6.60
2023-02-02T01:43:43.380Z,6.44
2023-02-02T01:46:13.409Z,6.55
2023-02-02T01:48:44.554Z,6.13
2023-02-02T01:51:16.612Z,6.17
2023-02-02T01:53:46.620Z,6.20
2023-02-02T01:56:17.886Z,6.36
2023-02-02T01:58:48.007Z,6.46
2023-02-02T02:01:22.887Z,6.43
2023-02-02T02:03:53.780Z,6.23
2023-02-02T02:06:26.073Z,6.32
2023-02-02T02:09:05.867Z,6.37
2023-02-02T02:11:35.512Z,6.38
2023-02-02T02:14:25.353Z,6.37
2023-02-02T02:17:16.494Z,6.53
2023-02-02T02:20:34.451Z,6.22
2023-02-02T02:23:25.312Z,6.09
2023-02-02T02:26:34.321Z,6.23
2023-02-02T02:29:07.797Z,6.19
2023-02-02T02:32:12.431Z,6.18
2023-02-02T02:34:55.605Z,6.41
2023-02-02T02:38:04.691Z,6.58
2023-02-02T02:40:39.726Z,6.68
2023-02-02T02:43:33.506Z,6.71
2023-02-02T02:46:02.690Z,6.71
2023-02-02T02:48:32.585Z,6.73
2023-02-02T02:51:39.229Z,6.73
2023-02-02T02:54:08.475Z,6.79
2023-02-02T02:56:55.231Z,6.89
2023-02-02T02:59:53.476Z,6.68
2023-02-02T03:02:47.925Z,6.68
2023-02-02T03:05:34.999Z,6.52
2023-02-02T03:08:18.167Z,6.49
2023-02-02T03:10:47.002Z,6.49
2023-02-02T03:13:43.354Z,6.51
2023-02-02T03:16:12.425Z,6.53
2023-02-02T03:18:40.962Z,6.48
2023-02-02T03:21:12.403Z,6.58
2023-02-02T03:23:41.391Z,6.66
2023-02-02T03:26:10.137Z,6.69
2023-02-02T03:28:39.115Z,6.44
2023-02-02T03:31:08.016Z,6.48
2023-02-02T03:33:39.916Z,6.44
2023-02-02T03:36:09.978Z,6.21
2023-02-02T03:38:39.152Z,6.46
2023-02-02T03:41:08.335Z,6.44
2023-02-02T03:43:36.830Z,6.42
2023-02-02T03:48:06.725Z,6.66
2023-02-02T03:51:16.187Z,6.87
2023-02-02T03:53:45.008Z,7.00
2023-02-02T03:56:14.229Z,6.96
2023-02-02T03:58:44.468Z,7.04
2023-02-02T04:01:13.743Z,6.89
2023-02-02T04:03:42.336Z,6.95
2023-02-02T04:06:11.261Z,7.01
2023-02-02T04:08:39.815Z,6.96
2023-02-02T04:11:11.699Z,6.91
2023-02-02T04:13:41.054Z,7.04
2023-02-02T04:16:10.661Z,7.11
2023-02-02T04:18:39.692Z,7.16
2023-02-02T04:21:09.280Z,7.27
2023-02-02T04:23:37.816Z,7.35
2023-02-02T04:26:06.657Z,7.36
2023-02-02T04:28:35.197Z,7.35
2023-02-02T04:31:04.304Z,7.30
2023-02-02T04:33:34.078Z,7.14
2023-02-02T04:36:02.789Z,7.08
2023-02-02T04:38:34.393Z,7.07
2023-02-02T04:41:08.035Z,7.25
2023-02-02T04:43:37.328Z,7.38
2023-02-02T04:46:06.637Z,7.41
2023-02-02T04:48:35.844Z,7.44
2023-02-02T04:51:06.529Z,7.46
2023-02-02T04:53:36.273Z,7.43
2023-02-02T04:56:09.649Z,7.42
2023-02-02T04:58:38.323Z,7.48
2023-02-02T05:01:19.189Z,7.48
2023-02-02T05:03:48.155Z,7.39
2023-02-02T05:06:17.872Z,7.40
2023-02-02T05:08:48.358Z,7.40
2023-02-02T05:11:19.398Z,7.32
2023-02-02T05:13:48.937Z,7.30
2023-02-02T05:16:17.903Z,7.14
2023-02-02T05:18:51.060Z,7.24
2023-02-02T05:21:21.935Z,7.32
2023-02-02T05:23:50.555Z,7.21
2023-02-02T05:26:24.242Z,7.22
2023-02-02T05:28:53.403Z,7.27
2023-02-02T05:31:22.374Z,7.30
2023-02-02T05:33:55.191Z,7.19
2023-02-02T05:36:23.760Z,7.20
2023-02-02T05:38:53.034Z,7.15
2023-02-02T05:41:22.126Z,7.20
2023-02-02T05:44:04.037Z,7.13
2023-02-02T05:46:37.216Z,6.77
2023-02-02T05:49:07.351Z,6.71
2023-02-02T05:51:41.115Z,7.09
2023-02-02T05:54:09.848Z,6.75
2023-02-02T05:56:38.747Z,6.67
2023-02-02T05:59:07.798Z,6.94
2023-02-02T06:01:38.644Z,7.09
2023-02-02T06:04:07.516Z,6.81
2023-02-02T06:06:38.145Z,6.83
2023-02-02T06:09:07.484Z,7.06
2023-02-02T06:11:37.492Z,6.75
2023-02-02T06:14:06.976Z,7.06
2023-02-02T06:16:37.443Z,7.16
2023-02-02T06:19:08.243Z,7.06
2023-02-02T06:21:38.689Z,7.29
2023-02-02T06:24:09.901Z,7.33
2023-02-02T06:26:39.029Z,7.01
2023-02-02T06:29:11.435Z,7.21
2023-02-02T06:31:40.298Z,7.45
2023-02-02T06:34:09.975Z,7.64
2023-02-02T06:36:38.840Z,7.77
2023-02-02T06:39:08.378Z,7.74
2023-02-02T06:41:37.552Z,7.73
2023-02-02T06:44:06.298Z,7.71
2023-02-02T06:46:35.292Z,7.80
2023-02-02T06:49:03.854Z,7.59
2023-02-02T06:51:34.046Z,7.50
2023-02-02T06:54:04.460Z,7.68
2023-02-02T06:56:32.846Z,7.74
2023-02-02T06:59:01.765Z,7.90
2023-02-02T07:01:31.791Z,7.78
2023-02-02T07:04:00.324Z,7.86
2023-02-02T07:06:29.496Z,7.41
2023-02-02T07:09:02.716Z,7.49
2023-02-02T07:11:35.298Z,7.74
2023-02-02T07:14:07.381Z,7.63
2023-02-02T07:16:35.805Z,7.85
2023-02-02T07:19:04.389Z,7.90
2023-02-02T07:21:36.393Z,7.86
2023-02-02T07:24:06.211Z,7.92
2023-02-02T07:26:36.353Z,7.93
2023-02-02T07:29:05.363Z,7.85
2023-02-02T07:31:37.314Z,8.03
2023-02-02T07:34:06.267Z,7.75
2023-02-02T07:36:35.008Z,7.67
2023-02-02T07:39:05.229Z,7.94
2023-02-02T07:41:37.155Z,8.08
2023-02-02T07:44:07.495Z,8.15
2023-02-02T07:46:36.255Z,8.26
2023-02-02T07:49:07.561Z,8.27
2023-02-02T07:51:38.227Z,8.44
2023-02-02T07:54:08.531Z,8.52
2023-02-02T07:56:38.773Z,8.64
2023-02-02T07:59:07.991Z,8.47
2023-02-02T08:01:36.713Z,8.49
2023-02-02T08:04:05.227Z,8.19
2023-02-02T08:06:37.176Z,7.75
2023-02-02T08:09:08.173Z,8.25
2023-02-02T08:11:37.638Z,8.28
2023-02-02T08:14:06.273Z,8.49
2023-02-02T08:16:35.372Z,8.58
2023-02-02T08:19:03.932Z,8.65
2023-02-02T08:21:35.643Z,8.53
2023-02-02T08:24:05.502Z,8.58
2023-02-02T08:26:35.495Z,8.93
2023-02-02T08:29:07.326Z,9.21
2023-02-02T08:31:37.386Z,9.60
2023-02-02T08:34:06.155Z,9.86
2023-02-02T08:36:37.786Z,9.94
2023-02-02T08:39:12.228Z,10.01
2023-02-02T08:41:41.017Z,10.95
2023-02-02T08:44:11.679Z,12.38
2023-02-02T08:46:40.998Z,13.87
2023-02-02T08:49:11.161Z,15.00
2023-02-02T08:51:39.740Z,14.40
2023-02-02T08:54:08.273Z,15.24
2023-02-02T08:56:37.109Z,16.22
2023-02-02T08:59:06.260Z,16.52
2023-02-02T09:01:35.135Z,16.31
2023-02-02T09:04:08.151Z,16.13
2023-02-02T09:06:40.755Z,15.93
2023-02-02T09:09:13.008Z,15.54
2023-02-02T09:11:42.121Z,15.35
2023-02-02T09:14:14.198Z,15.82
2023-02-02T09:16:43.071Z,16.47
2023-02-02T09:19:12.409Z,16.99
2023-02-02T09:21:41.173Z,17.22
2023-02-02T09:24:11.944Z,17.01
2023-02-02T09:26:40.990Z,17.02
2023-02-02T09:29:12.931Z,17.42
2023-02-02T09:31:41.845Z,17.78
2023-02-02T09:34:12.233Z,18.03
2023-02-02T09:36:41.367Z,18.11
2023-02-02T09:39:12.987Z,18.02
2023-02-02T09:41:42.027Z,17.84
2023-02-02T09:44:16.615Z,17.70
2023-02-02T09:47:12.048Z,17.47
2023-02-02T09:49:56.148Z,17.24
2023-02-02T09:52:29.478Z,17.11
2023-02-02T09:55:24.671Z,17.08
2023-02-02T09:57:56.244Z,17.05
2023-02-02T10:00:35.477Z,17.26
2023-02-02T10:03:37.884Z,17.41
2023-02-02T10:06:35.098Z,17.31
2023-02-02T10:09:08.811Z,17.04
2023-02-02T10:11:42.887Z,16.90
2023-02-02T10:14:59.256Z,16.73
2023-02-02T10:17:46.870Z,16.61
2023-02-02T10:20:26.853Z,16.02
2023-02-02T10:22:57.739Z,15.39
2023-02-02T10:25:27.665Z,14.99
2023-02-02T10:28:25.229Z,14.70
2023-02-02T10:31:01.302Z,14.70
2023-02-02T10:33:37.111Z,14.65
2023-02-02T10:36:35.020Z,14.63
2023-02-02T10:39:12.412Z,14.76
2023-02-02T10:41:53.183Z,14.93
2023-02-02T10:44:53.556Z,15.06
2023-02-02T10:47:30.044Z,15.17
2023-02-02T10:50:17.516Z,14.89
2023-02-02T10:52:57.021Z,15.03
2023-02-02T10:55:52.146Z,14.54
2023-02-02T10:58:32.579Z,14.28
2023-02-02T11:01:03.882Z,13.74
2023-02-02T11:03:32.744Z,13.55
2023-02-02T11:06:21.831Z,13.45
2023-02-02T11:09:01.189Z,13.37
2023-02-02T11:11:33.398Z,13.04
2023-02-02T11:14:08.454Z,12.78
2023-02-02T11:16:45.676Z,12.62
2023-02-02T11:19:18.469Z,12.26
2023-02-02T11:21:54.861Z,12.21
2023-02-02T11:24:53.622Z,12.46
2023-02-02T11:27:29.790Z,12.38
2023-02-02T11:30:02.421Z,12.42
2023-02-02T11:32:35.329Z,12.45
2023-02-02T11:35:08.905Z,12.54
2023-02-02T11:38:08.800Z,12.64
2023-02-02T11:40:42.763Z,12.44
2023-02-02T11:43:27.257Z,12.30
2023-02-02T11:46:04.363Z,12.17
2023-02-02T11:48:36.101Z,12.13
2023-02-02T11:51:05.677Z,12.17
2023-02-02T11:53:45.984Z,12.15
2023-02-02T11:56:20.544Z,12.12
2023-02-02T11:59:27.175Z,12.13
2023-02-02T12:02:23.191Z,12.00
2023-02-02T12:04:53.620Z,12.29
2023-02-02T12:07:29.878Z,12.38
2023-02-02T12:10:05.133Z,12.49
2023-02-02T12:12:52.258Z,12.44
2023-02-02T12:15:41.646Z,12.23
2023-02-02T12:18:45.339Z,12.14
2023-02-02T12:21:28.386Z,11.96
2023-02-02T12:24:13.670Z,11.29
2023-02-02T12:26:44.405Z,10.98
2023-02-02T12:29:32.504Z,10.93
2023-02-02T12:32:20.709Z,11.01
2023-02-02T12:34:58.470Z,11.15
2023-02-02T12:37:53.454Z,11.24
2023-02-02T12:40:40.907Z,11.23
2023-02-02T12:43:22.762Z,11.21
2023-02-02T12:45:58.681Z,11.24
2023-02-02T12:49:05.275Z,11.27
2023-02-02T12:51:55.385Z,11.38
2023-02-02T12:54:45.536Z,11.49
2023-02-02T12:57:30.263Z,11.46
2023-02-02T13:00:18.423Z,11.40
2023-02-02T13:02:54.228Z,11.20
2023-02-02T13:05:44.386Z,11.16
2023-02-02T13:08:17.149Z,11.08
2023-02-02T13:10:52.028Z,10.79
2023-02-02T13:13:27.815Z,10.40
2023-02-02T13:16:16.709Z,10.19
2023-02-02T13:19:02.523Z,10.18
2023-02-02T13:21:33.258Z,10.19
2023-02-02T13:24:05.078Z,10.15
2023-02-02T13:26:38.814Z,9.73
2023-02-02T13:29:18.526Z,9.94
2023-02-02T13:32:18.095Z,9.89
2023-02-02T13:35:01.820Z,9.69
2023-02-02T13:38:13.199Z,9.66
2023-02-02T13:40:43.734Z,9.69
2023-02-02T13:43:13.224Z,9.54
2023-02-02T13:46:09.270Z,9.05
2023-02-02T13:49:01.351Z,8.55
2023-02-02T13:55:41.624Z,8.69
2023-02-02T14:01:27.301Z,8.36
2023-02-02T14:07:41.753Z,8.50
2023-02-02T14:17:40.234Z,8.43
2023-02-02T14:20:52.548Z,8.56
2023-02-02T14:24:44.461Z,8.17
2023-02-02T14:27:47.934Z,8.40
2023-02-02T14:30:33.051Z,8.26
2023-02-02T14:34:29.694Z,8.18
2023-02-02T14:37:52.211Z,8.05
2023-02-02T15:16:42.542Z,8.42
2023-02-02T15:20:14.969Z,8.41
2023-02-02T15:23:27.145Z,8.57
2023-02-02T15:26:16.153Z,8.46
2023-02-02T15:28:52.558Z,8.48
2023-02-02T15:31:23.050Z,8.53
2023-02-02T15:33:54.500Z,8.61
2023-02-02T15:36:28.455Z,8.76
2023-02-02T15:38:59.257Z,8.63
2023-02-02T15:41:32.828Z,8.37
2023-02-02T15:44:01.421Z,8.49
2023-02-02T15:46:32.801Z,8.64
2023-02-02T15:49:33.880Z,8.69
2023-02-02T15:52:40.637Z,8.54
2023-02-02T15:55:23.824Z,8.30
2023-02-02T15:57:54.381Z,8.31
2023-02-02T16:00:26.573Z,8.30
2023-02-02T16:03:14.948Z,8.36
2023-02-02T16:06:04.286Z,8.41
2023-02-02T16:08:38.171Z,8.33
2023-02-02T16:11:14.954Z,8.35
2023-02-02T16:14:00.057Z,8.37
2023-02-02T16:16:38.885Z,8.35
2023-02-02T16:19:26.370Z,8.39
2023-02-02T16:23:14.515Z,8.38
2023-02-02T16:25:49.489Z,8.39
2023-02-02T16:28:20.547Z,8.28
2023-02-02T16:31:35.713Z,8.42
2023-02-02T16:34:14.753Z,8.54
2023-02-02T16:37:04.344Z,8.44
2023-02-02T16:39:41.402Z,8.56
2023-02-02T16:42:32.118Z,8.52
2023-02-02T16:45:05.770Z,8.59
2023-02-02T16:47:38.140Z,8.34
2023-02-02T16:50:08.428Z,8.06
2023-02-02T16:52:50.824Z,7.99
2023-02-02T16:55:20.229Z,8.32
2023-02-02T16:57:50.201Z,8.38
2023-02-02T17:00:27.435Z,8.11
2023-02-02T17:03:07.612Z,7.64
2023-02-02T17:05:49.515Z,7.70
2023-02-02T17:08:31.994Z,7.80
2023-02-02T17:11:03.425Z,7.41
2023-02-02T17:14:23.075Z,7.63
2023-02-02T17:16:51.514Z,7.59
2023-02-02T17:19:20.800Z,7.66
2023-02-02T17:21:49.879Z,7.50
2023-02-02T17:24:18.558Z,7.68
2023-02-02T17:26:48.490Z,7.84
2023-02-02T17:29:18.391Z,7.75
2023-02-02T17:31:47.973Z,7.81
2023-02-02T17:34:16.663Z,7.76
2023-02-02T17:36:46.005Z,7.76
2023-02-02T17:39:14.660Z,7.61
2023-02-02T17:41:43.664Z,7.50
2023-02-02T17:44:12.235Z,7.63
2023-02-02T17:46:42.933Z,7.51
2023-02-02T17:49:12.451Z,7.61
2023-02-02T17:51:43.533Z,7.60
2023-02-02T17:54:14.974Z,7.64
2023-02-02T17:56:44.931Z,7.57
2023-02-02T17:59:13.813Z,7.44
2023-02-02T18:01:43.254Z,7.50
2023-02-02T18:04:12.311Z,7.51
2023-02-02T18:06:40.871Z,7.55
2023-02-02T18:09:10.791Z,7.34
2023-02-02T18:11:42.138Z,7.17
2023-02-02T18:20:52.845Z,7.34
2023-02-02T18:23:21.804Z,7.55
2023-02-02T18:25:51.350Z,7.38
2023-02-02T18:28:20.567Z,7.27
2023-02-02T18:30:50.143Z,7.15
2023-02-02T18:33:20.379Z,7.25
2023-02-02T18:35:50.698Z,7.04
2023-02-02T18:38:23.655Z,6.99
2023-02-02T18:41:03.639Z,6.93
2023-02-02T18:43:39.976Z,6.94
2023-02-02T18:46:34.128Z,7.17
2023-02-02T18:53:18.396Z,7.47
2023-02-02T18:56:01.193Z,7.49
2023-02-02T18:58:49.886Z,7.42
2023-02-02T19:02:14.907Z,7.40
2023-02-02T19:05:32.864Z,7.52
2023-02-02T19:25:00.194Z,7.62
2023-02-02T19:27:47.820Z,7.88
2023-02-02T19:30:21.583Z,7.76
2023-02-02T19:36:06.856Z,7.24
2023-02-02T19:53:48.583Z,7.36
2023-02-02T19:56:28.109Z,7.78
2023-02-02T19:58:57.614Z,7.88
2023-02-02T20:01:28.918Z,7.97
2023-02-02T20:03:58.854Z,7.72
2023-02-02T20:06:30.906Z,7.55
2023-02-02T20:09:02.976Z,7.65
2023-02-02T20:11:35.809Z,7.74
2023-02-02T20:14:21.678Z,7.91
2023-02-02T20:16:56.810Z,7.84
2023-02-02T20:19:40.223Z,7.94
2023-02-02T20:22:27.053Z,7.87
2023-02-02T20:25:01.986Z,7.79
2023-02-02T20:27:31.356Z,7.96
2023-02-02T20:30:25.194Z,8.00
2023-02-02T20:32:58.331Z,8.05
2023-02-02T20:35:39.325Z,8.04
2023-02-02T20:38:39.947Z,7.77
2023-02-02T20:41:10.760Z,7.51
2023-02-02T20:43:40.385Z,7.69
2023-02-02T20:46:09.243Z,7.74
2023-02-02T20:48:38.300Z,7.79
2023-02-02T20:51:08.476Z,7.80
2023-02-02T20:53:41.841Z,7.77
2023-02-02T20:56:12.132Z,7.77
2023-02-02T20:58:42.694Z,7.86
2023-02-02T21:01:11.306Z,7.90
2023-02-02T21:03:39.778Z,7.84
2023-02-02T21:06:10.919Z,7.84
2023-02-02T21:08:40.452Z,7.83
2023-02-02T21:11:10.519Z,7.90
2023-02-02T21:13:39.864Z,7.79
2023-02-02T21:16:08.331Z,7.83
2023-02-02T21:18:38.378Z,7.91
2023-02-02T21:21:07.964Z,7.86
2023-02-02T21:23:36.599Z,7.84
2023-02-02T21:26:05.857Z,7.77
2023-02-02T21:28:34.818Z,7.59
2023-02-02T21:31:03.967Z,7.29
2023-02-02T21:33:33.583Z,7.24
2023-02-02T21:36:09.800Z,7.41
2023-02-02T21:38:38.832Z,7.53
2023-02-02T21:41:12.475Z,7.61
2023-02-02T21:43:41.006Z,7.60
2023-02-02T21:46:20.041Z,7.88
2023-02-02T21:48:48.742Z,7.96
2023-02-02T21:51:23.854Z,8.07
2023-02-02T21:53:52.549Z,8.10
2023-02-02T21:56:36.212Z,8.12
2023-02-02T21:59:15.946Z,8.02
2023-02-02T22:01:45.229Z,8.12
2023-02-02T22:04:28.757Z,8.03
2023-02-02T22:07:15.306Z,8.01
2023-02-02T22:09:44.957Z,7.94
2023-02-02T22:12:20.760Z,7.89
2023-02-02T22:14:51.620Z,7.81
2023-02-02T22:17:25.270Z,7.73
2023-02-02T22:19:59.616Z,7.66
2023-02-02T22:22:34.325Z,7.58
2023-02-02T22:25:16.924Z,7.52
2023-02-02T22:27:49.263Z,7.52
2023-02-02T22:30:39.708Z,7.47
2023-02-02T22:33:10.356Z,7.58
2023-02-02T22:35:44.188Z,7.58
2023-02-02T22:38:18.685Z,7.66
2023-02-02T22:40:47.648Z,7.68
2023-02-02T22:43:16.939Z,7.55
2023-02-02T22:45:48.332Z,7.63
2023-02-02T22:48:17.115Z,7.75
2023-02-02T22:50:45.958Z,7.77
2023-02-02T22:53:15.941Z,7.69
2023-02-02T22:55:44.443Z,7.75
2023-02-02T22:58:15.981Z,7.74
2023-02-02T23:00:44.551Z,7.60
2023-02-02T23:03:13.094Z,7.44
2023-02-02T23:05:41.809Z,7.55
2023-02-02T23:08:11.004Z,7.62
2023-02-02T23:10:59.791Z,7.57
2023-02-02T23:13:28.202Z,7.55
2023-02-02T23:15:57.186Z,7.55
2023-02-02T23:18:26.175Z,7.55
2023-02-02T23:20:57.995Z,7.64
2023-02-02T23:23:26.408Z,7.64
2023-02-02T23:25:56.105Z,7.68
2023-02-02T23:28:24.500Z,7.66
2023-02-02T23:30:54.804Z,7.63
2023-02-02T23:33:23.198Z,7.57
2023-02-02T23:35:51.916Z,7.71
2023-02-02T23:38:20.297Z,7.74
2023-02-02T23:40:48.733Z,7.66
2023-02-02T23:43:17.177Z,7.67
2023-02-02T23:45:45.996Z,7.73
2023-02-02T23:48:15.127Z,7.76
2023-02-02T23:50:47.153Z,7.74
2023-02-02T23:53:16.601Z,7.75
2023-02-02T23:55:49.436Z,7.68
2023-02-02T23:58:20.815Z,7.75
